createdAt,value
2018-12-20T00:01:24.460Z,15.50
2018-12-20T00:03:52.731Z,16.62
2018-12-20T00:06:21.264Z,17.62
2018-12-20T00:08:50.042Z,17.30
2018-12-20T00:11:19.204Z,17.10
2018-12-20T00:13:48.539Z,14.83
2018-12-20T00:16:16.855Z,15.98
2018-12-20T00:18:45.011Z,17.27
2018-12-20T00:21:13.342Z,17.70
2018-12-20T00:23:41.507Z,18.10
2018-12-20T00:26:09.744Z,15.63
2018-12-20T00:28:38.064Z,16.50
2018-12-20T00:31:13.448Z,17.00
2018-12-20T00:33:36.489Z,16.20
2018-12-20T00:36:04.839Z,17.10
2018-12-20T00:38:33.069Z,17.60
2018-12-20T00:41:01.207Z,17.60
2018-12-20T00:43:29.414Z,16.90
2018-12-20T00:45:57.631Z,17.80
2018-12-20T00:48:26.006Z,17.40
2018-12-20T00:50:54.223Z,15.93
2018-12-20T00:53:22.460Z,15.23
2018-12-20T00:55:50.647Z,17.15
2018-12-20T00:58:18.899Z,16.83
2018-12-20T01:00:47.134Z,16.50
2018-12-20T01:03:15.573Z,15.20
2018-12-20T01:05:43.834Z,16.23
2018-12-20T01:08:12.006Z,16.03
2018-12-20T01:10:40.450Z,16.03
2018-12-20T01:13:09.138Z,16.57
2018-12-20T01:15:37.446Z,17.50
2018-12-20T01:18:06.069Z,16.65
2018-12-20T01:20:34.739Z,16.45
2018-12-20T01:23:03.102Z,16.80
2018-12-20T01:25:31.498Z,17.25
2018-12-20T01:27:59.815Z,18.10
2018-12-20T01:30:27.995Z,18.20
2018-12-20T01:32:56.175Z,19.20
2018-12-20T01:35:24.625Z,18.35
2018-12-20T01:37:53.012Z,20.57
2018-12-20T01:40:21.347Z,18.47
2018-12-20T01:42:49.946Z,19.67
2018-12-20T01:45:18.181Z,19.10
2018-12-20T01:47:46.487Z,20.93
2018-12-20T01:50:15.088Z,19.77
2018-12-20T01:52:43.273Z,19.80
2018-12-20T01:55:11.949Z,20.93
2018-12-20T01:57:40.491Z,22.30
2018-12-20T02:00:10.406Z,20.23
2018-12-20T02:02:38.529Z,20.43
2018-12-20T02:05:07.164Z,20.72
2018-12-20T02:07:35.631Z,21.25
2018-12-20T02:10:04.723Z,21.15
2018-12-20T02:12:32.885Z,20.60
2018-12-20T02:15:01.720Z,20.20
2018-12-20T02:17:30.811Z,19.27
2018-12-20T02:19:59.277Z,20.60
2018-12-20T02:22:27.416Z,21.45
2018-12-20T02:24:55.763Z,21.30
2018-12-20T02:27:24.404Z,20.63
2018-12-20T02:29:52.996Z,21.05
2018-12-20T02:32:21.384Z,20.27
2018-12-20T02:34:49.817Z,20.73
2018-12-20T02:37:18.327Z,20.40
2018-12-20T02:39:46.898Z,19.87
2018-12-20T02:42:15.114Z,20.57
2018-12-20T02:44:43.643Z,21.52
2018-12-20T02:47:12.303Z,21.80
2018-12-20T02:49:40.627Z,21.52
2018-12-20T02:52:09.042Z,20.70
2018-12-20T02:57:05.351Z,21.63
2018-12-20T02:59:33.589Z,21.70
2018-12-20T03:02:01.832Z,22.93
2018-12-20T03:04:30.148Z,22.50
2018-12-20T03:06:58.645Z,23.20
2018-12-20T03:09:27.007Z,22.80
2018-12-20T03:11:55.375Z,22.00
2018-12-20T03:14:23.663Z,24.70
2018-12-20T03:16:52.017Z,22.25
2018-12-20T03:19:20.549Z,23.90
2018-12-20T03:21:49.263Z,24.35
2018-12-20T03:24:17.932Z,22.58
2018-12-20T03:26:46.499Z,23.62
2018-12-20T03:29:15.245Z,23.07
2018-12-20T03:31:43.625Z,21.70
2018-12-20T03:34:11.947Z,24.13
2018-12-20T03:36:40.418Z,23.13
2018-12-20T03:39:08.957Z,25.47
2018-12-20T03:41:37.714Z,23.53
2018-12-20T03:44:05.909Z,24.23
2018-12-20T03:46:34.655Z,22.80
2018-12-20T03:49:03.069Z,21.00
2018-12-20T03:51:31.387Z,21.73
2018-12-20T03:53:59.910Z,22.13
2018-12-20T03:56:28.295Z,23.70
2018-12-20T03:58:56.451Z,22.02
2018-12-20T04:01:24.696Z,20.40
2018-12-20T04:03:52.964Z,20.93
2018-12-20T04:06:21.201Z,21.50
2018-12-20T04:08:49.684Z,22.30
2018-12-20T04:11:18.129Z,21.80
2018-12-20T04:13:46.830Z,21.90
2018-12-20T04:16:15.052Z,20.92
2018-12-20T04:18:43.338Z,21.70
2018-12-20T04:21:11.778Z,20.17
2018-12-20T04:23:40.198Z,18.87
2018-12-20T04:26:08.893Z,20.17
2018-12-20T04:28:37.203Z,18.20
2018-12-20T04:31:05.550Z,19.10
2018-12-20T04:33:33.891Z,18.25
2018-12-20T04:36:02.066Z,17.85
2018-12-20T04:38:30.538Z,19.13
2018-12-20T04:40:58.762Z,17.17
2018-12-20T04:45:54.890Z,16.30
2018-12-20T04:48:23.051Z,17.03
2018-12-20T04:50:51.369Z,16.77
2018-12-20T04:53:19.645Z,16.13
2018-12-20T04:55:48.332Z,15.80
2018-12-20T04:58:16.598Z,16.43
2018-12-20T05:00:45.087Z,16.10
2018-12-20T05:03:13.796Z,14.03
2018-12-20T05:05:42.215Z,14.00
2018-12-20T05:08:10.381Z,14.90
2018-12-20T05:10:38.730Z,13.78
2018-12-20T05:13:07.007Z,13.63
2018-12-20T05:15:35.152Z,13.87
2018-12-20T05:18:03.386Z,11.53
2018-12-20T05:20:31.631Z,11.50
2018-12-20T05:22:59.815Z,11.60
2018-12-20T05:25:27.996Z,10.90
2018-12-20T05:27:56.251Z,11.40
2018-12-20T05:30:24.393Z,9.53
2018-12-20T05:32:52.677Z,9.55
2018-12-20T05:35:21.057Z,9.57
2018-12-20T05:37:49.455Z,10.65
2018-12-20T05:40:17.921Z,9.48
2018-12-20T05:42:46.114Z,9.87
2018-12-20T05:45:14.395Z,8.50
2018-12-20T05:47:42.858Z,10.10
2018-12-20T05:50:11.231Z,9.20
2018-12-20T05:52:39.612Z,8.85
2018-12-20T05:55:08.222Z,9.70
2018-12-20T05:57:36.336Z,9.93
2018-12-20T06:00:05.962Z,9.70
2018-12-20T06:02:34.311Z,9.33
2018-12-20T06:05:02.744Z,9.53
2018-12-20T06:07:31.245Z,8.60
2018-12-20T06:09:59.507Z,10.18
2018-12-20T06:12:27.686Z,8.87
2018-12-20T06:14:56.160Z,9.73
2018-12-20T06:17:24.812Z,9.63
2018-12-20T06:19:53.272Z,9.63
2018-12-20T06:22:21.760Z,9.73
2018-12-20T06:24:50.027Z,8.97
2018-12-20T06:27:18.184Z,8.40
2018-12-20T06:29:46.387Z,7.50
2018-12-20T06:32:14.513Z,7.20
2018-12-20T06:34:42.676Z,7.53
2018-12-20T06:37:10.839Z,6.90
2018-12-20T06:39:39.033Z,7.77
2018-12-20T06:42:07.489Z,6.60
2018-12-20T06:44:35.749Z,6.97
2018-12-20T06:47:03.979Z,5.62
2018-12-20T06:49:32.170Z,6.60
2018-12-20T06:52:00.387Z,6.00
2018-12-20T06:54:28.596Z,4.53
2018-12-20T06:56:56.926Z,4.63
2018-12-20T06:59:25.135Z,3.80
2018-12-20T07:01:53.307Z,3.60
2018-12-20T07:04:21.467Z,3.17
2018-12-20T07:06:49.587Z,3.70
2018-12-20T07:09:18.747Z,2.70
2018-12-20T07:11:46.887Z,3.03
2018-12-20T07:14:15.047Z,2.43
2018-12-20T07:16:43.203Z,2.93
2018-12-20T07:19:11.547Z,2.55
2018-12-20T07:21:39.975Z,2.10
2018-12-20T07:24:08.250Z,2.00
2018-12-20T07:26:36.430Z,2.80
2018-12-20T07:29:04.601Z,2.45
2018-12-20T07:31:32.761Z,2.00
2018-12-20T07:34:00.915Z,2.10
2018-12-20T07:36:29.054Z,2.30
2018-12-20T07:38:57.540Z,2.20
2018-12-20T07:41:25.693Z,2.40
2018-12-20T07:43:53.832Z,1.90
2018-12-20T07:46:22.147Z,2.07
2018-12-20T07:48:50.355Z,3.00
2018-12-20T07:51:18.599Z,5.43
2018-12-20T07:53:46.799Z,6.37
2018-12-20T07:56:15.320Z,6.67
2018-12-20T07:58:43.692Z,6.77
2018-12-20T08:01:11.983Z,6.30
2018-12-20T08:03:40.101Z,6.63
2018-12-20T08:06:08.264Z,6.07
2018-12-20T08:08:36.487Z,6.20
2018-12-20T08:11:04.660Z,6.80
2018-12-20T08:13:32.868Z,6.15
2018-12-20T08:16:01.093Z,5.90
2018-12-20T08:18:29.263Z,5.97
2018-12-20T08:20:57.427Z,6.20
2018-12-20T08:23:25.567Z,6.27
2018-12-20T08:25:53.744Z,6.23
2018-12-20T08:28:21.883Z,5.53
2018-12-20T08:30:50.003Z,5.53
2018-12-20T08:33:18.488Z,5.40
2018-12-20T08:35:46.827Z,4.60
2018-12-20T08:38:15.124Z,6.00
2018-12-20T08:40:43.281Z,5.03
2018-12-20T08:43:11.443Z,5.00
2018-12-20T08:45:39.663Z,4.73
2018-12-20T08:48:07.851Z,4.57
2018-12-20T08:50:36.018Z,5.47
2018-12-20T08:53:04.376Z,4.57
2018-12-20T08:55:32.623Z,5.30
2018-12-20T08:58:00.771Z,6.10
2018-12-20T09:00:29.055Z,6.83
2018-12-20T09:02:57.187Z,5.90
2018-12-20T09:05:25.463Z,7.50
2018-12-20T09:07:53.656Z,7.20
2018-12-20T09:10:21.878Z,5.50
2018-12-20T09:12:50.152Z,4.50
2018-12-20T09:15:18.291Z,4.05
2018-12-20T09:17:46.471Z,4.00
2018-12-20T09:20:14.593Z,3.95
2018-12-20T09:22:42.712Z,3.70
2018-12-20T09:25:10.947Z,3.30
2018-12-20T09:27:39.088Z,4.20
2018-12-20T09:30:07.947Z,3.30
2018-12-20T09:32:36.123Z,3.97
2018-12-20T09:35:04.527Z,3.43
2018-12-20T09:37:32.687Z,4.00
2018-12-20T09:42:28.393Z,4.17
2018-12-20T09:44:56.528Z,3.40
2018-12-20T09:47:30.199Z,3.50
2018-12-20T09:49:58.443Z,3.55
2018-12-20T09:52:26.575Z,3.80
2018-12-20T09:54:54.711Z,3.30
2018-12-20T09:57:23.025Z,3.57
2018-12-20T09:59:51.263Z,3.30
2018-12-20T10:02:19.535Z,3.80
2018-12-20T10:04:47.732Z,3.40
2018-12-20T10:07:15.908Z,3.70
2018-12-20T10:09:44.044Z,3.40
2018-12-20T10:12:12.279Z,3.77
2018-12-20T10:14:41.127Z,3.53
2018-12-20T10:17:09.312Z,4.53
2018-12-20T10:19:37.671Z,4.77
2018-12-20T10:22:05.831Z,4.70
2018-12-20T10:27:31.343Z,3.30
2018-12-20T10:29:57.640Z,3.60
2018-12-20T10:32:25.808Z,3.60
2018-12-20T10:34:53.964Z,3.40
2018-12-20T10:37:22.070Z,3.50
2018-12-20T10:39:50.332Z,3.50
2018-12-20T10:42:18.634Z,3.33
2018-12-20T10:44:46.867Z,3.00
2018-12-20T10:47:28.580Z,3.80
2018-12-20T10:49:50.515Z,3.80
2018-12-20T10:52:19.498Z,3.67
2018-12-20T10:54:47.867Z,3.70
2018-12-20T10:57:16.111Z,3.80
2018-12-20T10:59:44.324Z,3.20
2018-12-20T11:02:18.088Z,3.60
2018-12-20T11:04:51.743Z,4.10
2018-12-20T11:07:25.435Z,3.50
2018-12-20T11:09:58.905Z,3.17
2018-12-20T11:12:31.271Z,3.50
2018-12-20T11:14:59.531Z,3.70
2018-12-20T11:17:27.744Z,3.83
2018-12-20T11:19:55.860Z,3.13
2018-12-20T11:22:24.128Z,3.13
2018-12-20T11:24:52.319Z,2.60
2018-12-20T11:27:20.495Z,2.07
2018-12-20T11:29:48.688Z,2.10
2018-12-20T11:32:16.948Z,1.80
2018-12-20T11:34:45.119Z,1.57
2018-12-20T11:37:13.255Z,1.00
2018-12-20T11:39:41.430Z,1.60
2018-12-20T11:42:09.644Z,1.40
2018-12-20T11:44:37.863Z,1.50
2018-12-20T11:47:08.612Z,1.60
2018-12-20T11:49:36.783Z,1.30
2018-12-20T11:52:04.943Z,1.50
2018-12-20T11:54:33.075Z,1.60
2018-12-20T11:57:01.202Z,1.40
2018-12-20T11:59:29.367Z,1.70
2018-12-20T12:01:57.491Z,1.90
2018-12-20T12:04:25.651Z,1.43
2018-12-20T12:06:53.766Z,1.60
2018-12-20T12:09:21.935Z,1.83
2018-12-20T12:11:50.124Z,1.40
2018-12-20T12:14:18.527Z,2.17
2018-12-20T12:16:46.707Z,1.80
2018-12-20T12:19:14.943Z,2.07
2018-12-20T12:21:43.223Z,2.37
2018-12-20T12:24:11.363Z,1.87
2018-12-20T12:26:39.514Z,1.90
2018-12-20T12:29:07.871Z,2.23
2018-12-20T12:31:36.024Z,1.90
2018-12-20T12:34:04.253Z,1.83
2018-12-20T12:36:32.451Z,1.60
2018-12-20T12:39:00.596Z,1.80
2018-12-20T12:41:28.702Z,2.13
2018-12-20T12:43:56.855Z,1.87
2018-12-20T12:46:25.013Z,1.60
2018-12-20T12:48:53.240Z,1.80
2018-12-20T12:51:21.392Z,1.50
2018-12-20T12:53:49.565Z,1.77
2018-12-20T12:56:18.303Z,2.20
2018-12-20T12:58:46.435Z,1.60
2018-12-20T13:01:14.811Z,2.53
2018-12-20T13:03:42.984Z,1.70
2018-12-20T13:06:11.279Z,2.20
2018-12-20T13:08:39.483Z,2.00
2018-12-20T13:11:07.652Z,2.23
2018-12-20T13:13:35.899Z,1.87
2018-12-20T13:16:04.185Z,2.60
2018-12-20T13:18:32.451Z,1.90
2018-12-20T13:21:00.647Z,2.30
2018-12-20T13:23:28.804Z,2.77
2018-12-20T13:28:24.487Z,2.60
2018-12-20T13:30:52.655Z,3.10
2018-12-20T13:33:20.796Z,2.70
2018-12-20T13:35:49.072Z,3.50
2018-12-20T13:38:17.279Z,3.17
2018-12-20T13:40:45.449Z,3.20
2018-12-20T13:43:13.603Z,3.40
2018-12-20T13:45:41.775Z,2.53
2018-12-20T13:48:09.902Z,3.70
2018-12-20T13:50:38.236Z,4.10
2018-12-20T13:53:06.398Z,4.20
2018-12-20T13:55:34.579Z,4.53
2018-12-20T13:58:02.920Z,4.43
2018-12-20T14:00:31.055Z,4.40
2018-12-20T14:02:59.239Z,4.10
2018-12-20T14:05:27.587Z,3.67
2018-12-20T14:07:58.930Z,4.00
2018-12-20T14:10:25.875Z,4.90
2018-12-20T14:12:54.051Z,4.80
2018-12-20T14:15:22.593Z,3.93
2018-12-20T14:17:50.822Z,4.30
2018-12-20T14:20:19.047Z,5.07
2018-12-20T14:22:47.218Z,5.40
2018-12-20T14:25:15.420Z,4.13
2018-12-20T14:27:43.618Z,3.90
2018-12-20T14:35:07.241Z,3.70
2018-12-20T14:37:35.476Z,4.40
2018-12-20T14:40:04.323Z,4.00
2018-12-20T14:42:32.468Z,4.40
2018-12-20T14:45:00.616Z,4.20
2018-12-20T14:47:28.982Z,3.90
2018-12-20T14:49:57.368Z,4.60
2018-12-20T14:52:25.551Z,4.30
2018-12-20T14:54:53.718Z,4.50
2018-12-20T14:57:21.907Z,4.40
2018-12-20T14:59:50.630Z,5.07
2018-12-20T15:02:18.831Z,5.27
2018-12-20T15:04:46.993Z,4.43
2018-12-20T15:07:15.136Z,4.70
2018-12-20T15:09:43.371Z,4.63
2018-12-20T15:12:11.535Z,4.40
2018-12-20T15:14:40.059Z,5.30
2018-12-20T15:17:08.224Z,5.10
2018-12-20T15:19:36.364Z,3.90
2018-12-20T15:22:04.519Z,4.43
2018-12-20T15:24:32.938Z,5.03
2018-12-20T15:27:01.087Z,5.30
2018-12-20T15:29:29.327Z,4.40
2018-12-20T15:31:57.507Z,5.00
2018-12-20T15:34:25.694Z,5.35
2018-12-20T15:36:54.095Z,5.50
2018-12-20T15:39:22.903Z,4.90
2018-12-20T15:41:52.057Z,4.43
2018-12-20T15:44:20.194Z,4.40
2018-12-20T15:46:48.362Z,3.50
2018-12-20T15:49:16.627Z,4.00
2018-12-20T15:51:45.279Z,4.42
2018-12-20T15:54:13.423Z,4.20
2018-12-20T15:56:41.627Z,3.80
2018-12-20T15:59:09.835Z,3.30
2018-12-20T16:01:38.037Z,3.50
2018-12-20T16:04:06.283Z,3.60
2018-12-20T16:06:34.455Z,3.53
2018-12-20T16:09:03.839Z,5.40
2018-12-20T16:11:32.067Z,4.20
2018-12-20T16:14:00.243Z,3.70
2018-12-20T16:16:28.500Z,4.20
2018-12-20T16:19:04.667Z,4.23
2018-12-20T16:21:26.767Z,3.70
2018-12-20T16:23:54.947Z,3.60
2018-12-20T16:26:23.177Z,4.00
2018-12-20T16:28:51.371Z,3.40
2018-12-20T16:31:19.669Z,3.90
2018-12-20T16:33:47.889Z,3.40
2018-12-20T16:36:16.003Z,3.20
2018-12-20T16:38:44.132Z,3.50
2018-12-20T16:41:12.395Z,4.70
2018-12-20T16:43:40.687Z,7.80
2018-12-20T16:46:09.103Z,10.57
2018-12-20T16:48:37.244Z,6.80
2018-12-20T16:51:05.494Z,4.50
2018-12-20T16:53:33.654Z,3.00
2018-12-20T16:56:01.834Z,3.07
2018-12-20T16:58:29.970Z,3.90
2018-12-20T17:00:58.131Z,3.10
2018-12-20T17:03:26.376Z,3.83
2018-12-20T17:05:54.627Z,5.30
2018-12-20T17:08:22.779Z,7.27
2018-12-20T17:10:50.943Z,4.67
2018-12-20T17:13:20.324Z,5.37
2018-12-20T17:15:48.463Z,3.17
2018-12-20T17:18:17.919Z,3.87
2018-12-20T17:20:46.131Z,4.00
2018-12-20T17:23:14.395Z,2.60
2018-12-20T17:25:42.788Z,3.33
2018-12-20T17:28:10.943Z,3.40
2018-12-20T17:30:39.268Z,2.50
2018-12-20T17:33:07.436Z,2.33
2018-12-20T17:35:35.604Z,2.87
2018-12-20T17:38:03.759Z,2.53
2018-12-20T17:40:31.927Z,3.13
2018-12-20T17:43:00.099Z,3.30
2018-12-20T17:45:28.403Z,2.83
2018-12-20T17:47:56.720Z,2.70
2018-12-20T17:50:24.844Z,3.20
2018-12-20T17:52:53.103Z,3.30
2018-12-20T17:55:21.271Z,3.30
2018-12-20T17:57:49.411Z,4.80
2018-12-20T18:00:17.587Z,2.70
2018-12-20T18:02:45.702Z,2.53
2018-12-20T18:05:13.840Z,2.30
2018-12-20T18:07:42.106Z,2.47
2018-12-20T18:10:11.529Z,3.20
2018-12-20T18:12:39.925Z,2.30
2018-12-20T18:15:10.281Z,3.00
2018-12-20T18:17:38.512Z,2.60
2018-12-20T18:20:09.432Z,2.55
2018-12-20T18:22:37.567Z,3.40
2018-12-20T18:25:06.887Z,2.60
2018-12-20T18:27:35.043Z,3.10
2018-12-20T18:30:03.918Z,2.30
2018-12-20T18:32:32.171Z,2.40
2018-12-20T18:35:00.375Z,2.30
2018-12-20T18:37:28.627Z,3.13
2018-12-20T18:39:56.809Z,2.50
2018-12-20T18:42:24.971Z,2.80
2018-12-20T18:44:53.176Z,2.57
2018-12-20T18:47:21.491Z,3.17
2018-12-20T18:49:49.667Z,3.00
2018-12-20T18:52:17.828Z,4.97
2018-12-20T18:54:46.760Z,6.73
2018-12-20T18:57:14.939Z,5.63
2018-12-20T18:59:43.115Z,3.70
2018-12-20T19:02:11.263Z,3.55
2018-12-20T19:04:39.470Z,3.30
2018-12-20T19:07:08.106Z,3.40
2018-12-20T19:09:36.289Z,9.63
2018-12-20T19:12:04.551Z,4.93
2018-12-20T19:14:32.783Z,3.63
2018-12-20T19:20:31.982Z,3.80
2018-12-20T19:23:00.227Z,2.73
2018-12-20T19:25:28.568Z,2.97
2018-12-20T19:27:57.169Z,3.00
2018-12-20T19:30:25.587Z,3.30
2018-12-20T19:32:54.667Z,2.60
2018-12-20T19:35:22.890Z,2.93
2018-12-20T19:37:51.051Z,2.45
2018-12-20T19:40:19.655Z,2.60
2018-12-20T19:42:48.027Z,3.57
2018-12-20T19:45:17.010Z,3.27
2018-12-20T19:47:45.170Z,4.30
2018-12-20T19:50:13.677Z,3.00
2018-12-20T19:52:41.814Z,2.87
2018-12-20T19:55:10.003Z,2.80
2018-12-20T19:57:38.206Z,2.47
2018-12-20T20:00:10.772Z,3.23
2018-12-20T20:02:38.932Z,2.80
2018-12-20T20:05:07.179Z,3.00
2018-12-20T20:07:35.360Z,2.97
2018-12-20T20:10:04.467Z,2.93
2018-12-20T20:12:32.631Z,2.80
2018-12-20T20:15:01.717Z,2.95
2018-12-20T20:17:29.897Z,4.00
2018-12-20T20:19:59.832Z,3.30
2018-12-20T20:22:28.199Z,3.57
2018-12-20T20:24:56.320Z,3.10
2018-12-20T20:27:24.479Z,3.10
2018-12-20T20:29:52.774Z,3.23
2018-12-20T20:32:21.395Z,3.20
2018-12-20T20:34:49.538Z,2.95
2018-12-20T20:37:17.763Z,2.80
2018-12-20T20:39:46.250Z,2.97
2018-12-20T20:42:14.521Z,2.70
2018-12-20T20:44:42.669Z,3.00
2018-12-20T20:47:10.789Z,2.90
2018-12-20T20:49:38.899Z,3.60
2018-12-20T20:52:07.067Z,3.53
2018-12-20T20:54:35.300Z,4.07
2018-12-20T20:57:03.643Z,3.50
2018-12-20T20:59:31.835Z,4.53
2018-12-20T21:02:00.107Z,3.33
2018-12-20T21:04:28.280Z,3.50
2018-12-20T21:06:56.492Z,3.40
2018-12-20T21:09:24.719Z,3.57
2018-12-20T21:11:52.975Z,4.10
2018-12-20T21:14:21.143Z,4.13
2018-12-20T21:16:49.456Z,3.70
2018-12-20T21:19:17.619Z,4.00
2018-12-20T21:21:45.827Z,3.40
2018-12-20T21:24:13.964Z,3.00
2018-12-20T21:26:42.104Z,4.07
2018-12-20T21:29:10.384Z,3.25
2018-12-20T21:31:38.513Z,3.83
2018-12-20T21:34:06.668Z,3.50
2018-12-20T21:36:34.807Z,3.57
2018-12-20T21:39:04.688Z,4.75
2018-12-20T21:41:32.935Z,4.03
2018-12-20T21:44:01.121Z,4.40
2018-12-20T21:46:29.504Z,4.17
2018-12-20T21:48:57.679Z,4.00
2018-12-20T21:51:25.908Z,4.23
2018-12-20T21:53:54.996Z,4.07
2018-12-20T21:56:23.647Z,3.70
2018-12-20T21:58:51.902Z,3.97
2018-12-20T22:01:20.111Z,4.00
2018-12-20T22:03:48.254Z,4.20
2018-12-20T22:06:16.484Z,4.83
2018-12-20T22:08:44.639Z,4.50
2018-12-20T22:11:12.780Z,4.70
2018-12-20T22:13:40.933Z,4.37
2018-12-20T22:16:09.071Z,3.73
2018-12-20T22:18:37.213Z,3.40
2018-12-20T22:21:05.403Z,3.60
2018-12-20T22:23:33.544Z,3.73
2018-12-20T22:26:01.703Z,3.70
2018-12-20T22:28:29.835Z,3.67
2018-12-20T22:30:58.072Z,3.63
2018-12-20T22:33:26.347Z,3.70
2018-12-20T22:35:54.542Z,3.77
2018-12-20T22:38:22.739Z,4.17
2018-12-20T22:40:50.892Z,4.00
2018-12-20T22:43:19.069Z,3.37
2018-12-20T22:45:47.291Z,4.10
2018-12-20T22:48:15.412Z,3.97
2018-12-20T22:50:43.591Z,3.40
2018-12-20T22:53:11.798Z,3.70
2018-12-20T22:55:40.011Z,3.83
2018-12-20T22:58:08.223Z,3.50
2018-12-20T23:00:36.552Z,3.43
2018-12-20T23:03:05.222Z,3.90
2018-12-20T23:05:33.392Z,3.50
2018-12-20T23:08:01.549Z,3.80
2018-12-20T23:10:29.756Z,3.50
2018-12-20T23:12:57.871Z,4.37
2018-12-20T23:15:26.051Z,3.10
2018-12-20T23:17:54.199Z,3.40
2018-12-20T23:20:22.330Z,3.10
2018-12-20T23:22:50.548Z,3.70
2018-12-20T23:25:18.815Z,4.57
2018-12-20T23:27:46.943Z,3.27
2018-12-20T23:30:15.190Z,3.73
2018-12-20T23:32:43.379Z,3.20
2018-12-20T23:35:11.711Z,3.67
2018-12-20T23:37:39.862Z,3.80
2018-12-20T23:40:08.188Z,3.60
2018-12-20T23:42:36.353Z,3.00
2018-12-20T23:45:04.852Z,3.00
2018-12-20T23:47:33.060Z,3.67
2018-12-20T23:50:01.232Z,3.50
2018-12-20T23:52:29.351Z,3.43
2018-12-20T23:54:57.554Z,3.20
2018-12-20T23:57:25.795Z,3.40
2018-12-20T23:59:53.951Z,3.03
